createdAt,value
2024-05-09T00:01:26.947Z,95044.09
2024-05-09T00:04:28.851Z,95044.09
2024-05-09T00:07:30.627Z,95047.06
2024-05-09T00:10:37.083Z,95051.28
2024-05-09T00:13:40.621Z,95049.72
2024-05-09T00:16:42.526Z,95053.16
2024-05-09T00:19:44.635Z,95048.16
2024-05-09T00:22:46.473Z,95053.16
2024-05-09T00:25:48.360Z,95045.00
2024-05-09T00:28:50.345Z,95043.13
2024-05-09T00:31:52.343Z,95039.38
2024-05-09T00:34:54.223Z,95036.53
2024-05-09T00:37:56.099Z,95030.13
2024-05-09T00:40:57.964Z,95036.22
2024-05-09T00:44:00.269Z,95037.31
2024-05-09T00:47:02.101Z,95028.53
2024-05-09T00:50:05.589Z,95032.28
2024-05-09T00:53:14.328Z,95031.50
2024-05-09T00:56:17.194Z,95030.72
2024-05-09T00:59:24.150Z,95037.63
2024-05-09T01:02:26.059Z,95042.16
2024-05-09T01:05:28.028Z,95041.38
2024-05-09T01:08:30.074Z,95045.13
2024-05-09T01:11:41.673Z,95037.41
2024-05-09T01:14:43.674Z,95039.03
2024-05-09T01:17:46.325Z,95043.53
2024-05-09T01:20:48.246Z,95039.81
2024-05-09T01:23:50.210Z,95038.22
2024-05-09T01:26:52.153Z,95040.88
2024-05-09T01:29:53.955Z,95040.41
2024-05-09T01:32:55.875Z,95035.06
2024-05-09T01:35:57.937Z,95032.41
2024-05-09T01:38:59.783Z,95026.09
2024-05-09T01:42:01.828Z,95040.19
2024-05-09T01:45:03.701Z,95032.19
2024-05-09T01:48:06.166Z,95039.88
2024-05-09T01:51:08.637Z,95034.06
2024-05-09T01:54:10.920Z,95034.06
2024-05-09T01:57:12.723Z,95034.06
2024-05-09T02:00:22.135Z,95035.16
2024-05-09T02:03:31.585Z,95035.66
2024-05-09T02:06:39.955Z,95032.50
2024-05-09T02:09:41.904Z,95032.50
2024-05-09T02:12:43.669Z,95037.03
2024-05-09T02:15:45.498Z,95032.81
2024-05-09T02:18:47.491Z,95036.75
2024-05-09T02:21:49.373Z,95037.84
2024-05-09T02:24:51.215Z,95031.72
2024-05-09T02:27:53.057Z,95029.38
2024-05-09T02:30:54.874Z,95040.81
2024-05-09T02:33:57.024Z,95036.88
2024-05-09T02:36:59.038Z,95042.97
2024-05-09T02:40:00.990Z,95039.22
2024-05-09T02:43:02.727Z,95033.13
2024-05-09T02:46:04.876Z,95045.66
2024-05-09T02:49:06.781Z,95039.84
2024-05-09T02:52:08.632Z,95040.31
2024-05-09T02:55:10.388Z,95037.66
2024-05-09T02:58:12.433Z,95035.31
2024-05-09T03:01:17.891Z,95033.72
2024-05-09T03:04:19.761Z,95031.06
2024-05-09T03:07:21.581Z,95033.03
2024-05-09T03:10:28.361Z,95027.84
2024-05-09T03:13:30.864Z,95026.56
2024-05-09T03:16:38.432Z,95026.09
2024-05-09T03:19:40.309Z,95034.19
2024-05-09T03:22:42.188Z,95031.72
2024-05-09T03:25:44.058Z,95033.00
2024-05-09T03:28:46.048Z,95032.03
2024-05-09T03:31:47.963Z,95033.22
2024-05-09T03:34:49.808Z,95036.97
2024-05-09T03:37:51.670Z,95030.84
2024-05-09T03:40:53.474Z,95034.63
2024-05-09T03:43:55.389Z,95033.81
2024-05-09T03:46:57.687Z,95038.53
2024-05-09T03:49:59.451Z,95034.44
2024-05-09T03:53:02.087Z,95036.66
2024-05-09T03:56:07.903Z,95032.56
2024-05-09T04:02:11.466Z,95037.88
2024-05-09T04:05:14.050Z,95033.84
2024-05-09T04:08:16.105Z,95030.19
2024-05-09T04:11:18.481Z,95032.06
2024-05-09T04:14:20.566Z,95030.00
2024-05-09T04:17:22.585Z,95031.88
2024-05-09T04:23:40.675Z,95029.16
2024-05-09T04:26:42.710Z,95030.75
2024-05-09T04:29:44.589Z,95032.63
2024-05-09T04:32:46.625Z,95029.97
2024-05-09T04:35:49.653Z,95037.75
2024-05-09T04:38:51.541Z,95030.56
2024-05-09T04:41:53.538Z,95028.38
2024-05-09T04:44:58.675Z,95035.00
2024-05-09T04:48:01.287Z,95033.53
2024-05-09T04:51:04.243Z,95040.53
2024-05-09T04:54:08.458Z,95042.00
2024-05-09T04:57:12.505Z,95040.22
2024-05-09T05:00:18.082Z,95048.09
2024-05-09T05:03:27.730Z,95048.25
2024-05-09T05:06:30.707Z,95049.06
2024-05-09T05:09:32.500Z,95051.72
2024-05-09T05:12:52.605Z,95057.03
2024-05-09T05:15:58.607Z,95054.84
2024-05-09T05:19:00.719Z,95053.75
2024-05-09T05:22:02.664Z,95063.31
2024-05-09T05:25:04.725Z,95066.00
2024-05-09T05:28:06.818Z,95066.00
2024-05-09T05:31:08.683Z,95061.34
2024-05-09T05:34:10.549Z,95069.34
2024-05-09T05:37:12.318Z,95069.94
2024-05-09T05:40:24.657Z,95078.72
2024-05-09T05:43:30.149Z,95081.88
2024-05-09T05:46:31.903Z,95082.97
2024-05-09T05:49:34.654Z,95077.31
2024-05-09T05:52:36.440Z,95075.44
2024-05-09T05:55:40.078Z,95074.13
2024-05-09T05:58:43.299Z,95071.06
2024-05-09T06:01:45.229Z,95072.63
2024-05-09T06:04:47.271Z,95077.78
2024-05-09T06:07:49.212Z,95077.28
2024-05-09T06:10:51.194Z,95076.50
2024-05-09T06:13:53.139Z,95081.84
2024-05-09T06:16:57.644Z,95077.59
2024-05-09T06:20:00.143Z,95072.75
2024-05-09T06:23:03.367Z,95070.09
2024-05-09T06:26:05.419Z,95079.16
2024-05-09T06:29:07.476Z,95074.63
2024-05-09T06:32:09.373Z,95076.22
2024-05-09T06:35:11.237Z,95076.22
2024-05-09T06:38:13.191Z,95075.41
2024-05-09T06:41:15.361Z,95078.88
2024-05-09T06:44:17.187Z,95074.63
2024-05-09T06:47:19.108Z,95076.22
2024-05-09T06:50:24.224Z,95077.28
2024-05-09T06:53:29.750Z,95081.06
2024-05-09T06:56:31.839Z,95072.28
2024-05-09T06:59:33.699Z,95082.09
2024-05-09T07:02:35.901Z,95077.38
2024-05-09T07:05:38.023Z,95077.38
2024-05-09T07:08:41.340Z,95078.97
2024-05-09T07:11:43.327Z,95086.47
2024-05-09T07:14:45.261Z,95095.53
2024-05-09T07:17:47.284Z,95095.06
2024-05-09T07:20:50.250Z,95098.81
2024-05-09T07:23:52.561Z,95096.44
2024-05-09T07:26:54.373Z,95100.81
2024-05-09T07:29:56.595Z,95105.63
2024-05-09T07:32:58.857Z,95110.19
2024-05-09T07:36:00.831Z,95110.75
2024-05-09T07:39:02.709Z,95109.66
2024-05-09T07:42:04.990Z,95113.41
2024-05-09T07:45:29.546Z,95122.97
2024-05-09T07:50:01.360Z,95122.00
2024-05-09T07:53:20.939Z,95128.59
2024-05-09T07:55:13.845Z,95127.03
2024-05-09T07:58:15.770Z,95123.56
2024-05-09T08:01:17.829Z,95122.78
2024-05-09T08:04:20.861Z,95120.44
2024-05-09T08:07:23.197Z,95125.25
2024-05-09T08:10:28.835Z,95133.25
2024-05-09T08:13:31.201Z,95133.25
2024-05-09T08:16:33.120Z,95135.91
2024-05-09T08:19:37.802Z,95140.75
2024-05-09T08:22:39.665Z,95142.13
2024-05-09T08:25:41.448Z,95138.38
2024-05-09T08:28:43.306Z,95147.44
2024-05-09T08:31:45.159Z,95150.91
2024-05-09T08:34:47.228Z,95151.69
2024-05-09T08:37:50.115Z,95150.50
2024-05-09T08:40:52.313Z,95152.28
2024-05-09T08:43:54.550Z,95149.31
2024-05-09T08:46:56.924Z,95147.94
2024-05-09T08:50:01.205Z,95146.38
2024-05-09T08:53:03.161Z,95147.16
2024-05-09T08:56:09.689Z,95144.50
2024-05-09T08:59:18.176Z,95142.63
2024-05-09T09:02:22.364Z,95144.00
2024-05-09T09:05:29.798Z,95146.38
2024-05-09T09:08:31.996Z,95146.06
2024-05-09T09:11:33.887Z,95146.06
2024-05-09T09:14:35.685Z,95141.53
2024-05-09T09:17:38.411Z,95143.88
2024-05-09T09:20:40.298Z,95149.22
2024-05-09T09:23:42.112Z,95143.88
2024-05-09T09:26:45.550Z,95138.56
2024-05-09T09:29:47.344Z,95141.72
2024-05-09T09:32:50.244Z,95144.06
2024-05-09T09:35:52.261Z,95138.94
2024-05-09T09:38:55.389Z,95138.94
2024-05-09T09:41:59.647Z,95139.16
2024-05-09T09:45:05.551Z,95142.31
2024-05-09T09:48:09.010Z,95134.31
2024-05-09T09:51:11.673Z,95131.34
2024-05-09T09:54:14.100Z,95129.97
2024-05-09T09:57:19.559Z,95124.34
2024-05-09T10:00:27.461Z,95128.56
2024-05-09T10:03:34.852Z,95116.06
2024-05-09T10:06:42.450Z,95123.75
2024-05-09T10:09:44.292Z,95120.00
2024-05-09T10:13:08.598Z,95112.00
2024-05-09T10:16:11.276Z,95117.03
2024-05-09T10:19:26.562Z,95109.03
2024-05-09T10:22:28.904Z,95114.88
2024-05-09T10:25:30.768Z,95109.56
2024-05-09T10:28:35.333Z,95111.13
2024-05-09T10:31:39.516Z,95105.50
2024-05-09T10:34:41.464Z,95104.41
2024-05-09T10:37:43.878Z,95101.44
2024-05-09T10:40:46.572Z,95104.88
2024-05-09T10:43:49.394Z,95097.38
2024-05-09T10:46:53.877Z,95102.72
2024-05-09T10:49:56.154Z,95098.75
2024-05-09T10:52:57.919Z,95101.94
2024-05-09T10:56:01.113Z,95092.31
2024-05-09T10:59:05.977Z,95092.78
2024-05-09T11:02:08.199Z,95093.09
2024-05-09T11:05:10.453Z,95090.81
2024-05-09T11:08:12.601Z,95094.06
2024-05-09T11:11:15.179Z,95090.13
2024-05-09T11:14:17.628Z,95092.31
2024-05-09T11:17:19.468Z,95098.75
2024-05-09T11:20:29.077Z,95101.28
2024-05-09T11:23:31.823Z,95089.41
2024-05-09T11:26:33.750Z,95091.09
2024-05-09T11:29:39.912Z,95085.59
2024-05-09T11:32:43.008Z,95085.41
2024-05-09T11:35:46.937Z,95095.09
2024-05-09T11:38:48.820Z,95082.84
2024-05-09T11:41:50.710Z,95089.28
2024-05-09T11:44:52.458Z,95078.13
2024-05-09T11:47:54.693Z,95084.56
2024-05-09T11:50:56.738Z,95078.75
2024-05-09T11:53:58.599Z,95084.84
2024-05-09T11:57:00.446Z,95077.16
2024-05-09T12:00:03.076Z,95078.25
2024-05-09T12:03:05.995Z,95080.94
2024-05-09T12:06:08.240Z,95071.84
2024-05-09T12:09:10.091Z,95077.16
2024-05-09T12:12:12.478Z,95070.28
2024-05-09T12:15:14.374Z,95067.31
2024-05-09T12:18:16.273Z,95064.66
2024-05-09T12:21:18.260Z,95070.75
2024-05-09T12:24:20.004Z,95062.75
2024-05-09T12:27:22.356Z,95061.69
2024-05-09T12:30:33.112Z,95059.00
2024-05-09T12:33:39.638Z,95059.81
2024-05-09T12:36:42.189Z,95054.78
2024-05-09T12:39:44.057Z,95059.31
2024-05-09T12:42:45.899Z,95058.53
2024-05-09T12:45:47.856Z,95057.75
2024-05-09T12:48:50.015Z,95056.97
2024-05-09T12:51:51.978Z,95064.16
2024-05-09T12:54:53.896Z,95056.47
2024-05-09T12:57:56.218Z,95057.88
2024-05-09T13:00:58.364Z,95059.22
2024-05-09T13:04:00.321Z,95062.50
2024-05-09T13:07:04.309Z,95064.38
2024-05-09T13:10:13.815Z,95070.78
2024-05-09T13:13:18.230Z,95062.63
2024-05-09T13:16:20.274Z,95069.22
2024-05-09T13:19:22.240Z,95071.09
2024-05-09T13:22:24.146Z,95071.09
2024-05-09T13:25:25.985Z,95077.81
2024-05-09T13:28:27.955Z,95073.56
2024-05-09T13:31:29.983Z,95076.53
2024-05-09T13:34:31.951Z,95067.78
2024-05-09T13:37:33.830Z,95075.28
2024-05-09T13:40:36.632Z,95071.03
2024-05-09T13:43:39.036Z,95074.75
2024-05-09T13:46:40.967Z,95083.56
2024-05-09T13:49:43.063Z,95077.41
2024-05-09T13:52:44.904Z,95075.38
2024-05-09T13:55:46.945Z,95079.09
2024-05-09T13:58:50.618Z,95088.19
2024-05-09T14:01:52.585Z,95087.69
2024-05-09T14:04:54.690Z,95093.81
2024-05-09T14:07:56.706Z,95097.88
2024-05-09T14:10:58.674Z,95095.81
2024-05-09T14:14:00.618Z,95110.50
2024-05-09T14:17:02.526Z,95104.66
2024-05-09T14:20:06.106Z,95116.38
2024-05-09T14:23:08.112Z,95111.66
2024-05-09T14:26:10.019Z,95108.81
2024-05-09T14:29:11.789Z,95113.06
2024-05-09T14:32:13.639Z,95112.56
2024-05-09T14:35:15.421Z,95115.53
2024-05-09T14:38:17.216Z,95108.63
2024-05-09T14:41:19.064Z,95113.16
2024-05-09T14:44:20.843Z,95121.94
2024-05-09T14:47:22.881Z,95117.69
2024-05-09T14:50:34.462Z,95124.88
2024-05-09T14:53:39.522Z,95120.34
2024-05-09T14:56:41.858Z,95120.06
2024-05-09T14:59:43.649Z,95122.00
2024-05-09T15:02:46.558Z,95124.66
2024-05-09T15:05:50.768Z,95115.53
2024-05-09T15:08:57.819Z,95116.28
2024-05-09T15:11:59.672Z,95118.13
2024-05-09T15:15:01.471Z,95119.47
2024-05-09T15:18:07.142Z,95119.06
2024-05-09T15:21:09.225Z,95127.09
2024-05-09T15:24:11.150Z,95120.56
2024-05-09T15:27:12.979Z,95123.47
2024-05-09T15:30:18.130Z,95129.50
2024-05-09T15:33:22.647Z,95121.25
2024-05-09T15:36:24.631Z,95119.84
2024-05-09T15:39:28.448Z,95123.97
2024-05-09T15:42:30.403Z,95125.78
2024-05-09T15:45:32.328Z,95129.50
2024-05-09T15:48:34.657Z,95129.63
2024-05-09T15:51:36.733Z,95126.53
2024-05-09T15:54:38.823Z,95130.50
2024-05-09T15:57:41.086Z,95134.09
2024-05-09T16:00:44.978Z,95134.50
2024-05-09T16:03:48.363Z,95139.84
2024-05-09T16:06:50.498Z,95135.59
2024-05-09T16:09:52.281Z,95138.09
2024-05-09T16:12:54.109Z,95140.31
2024-05-09T16:15:56.143Z,95135.47
2024-05-09T16:18:58.060Z,95146.13
2024-05-09T16:22:00.557Z,95142.53
2024-05-09T16:25:02.504Z,95143.19
2024-05-09T16:28:08.548Z,95146.16
2024-05-09T16:31:12.380Z,95144.13
2024-05-09T16:34:14.298Z,95152.25
2024-05-09T16:37:16.283Z,95154.47
2024-05-09T16:40:25.549Z,95155.13
2024-05-09T16:43:36.057Z,95161.09
2024-05-09T16:46:37.946Z,95151.97
2024-05-09T16:49:39.691Z,95155.13
2024-05-09T16:52:41.619Z,95158.22
2024-05-09T16:55:43.534Z,95172.78
2024-05-09T16:58:45.613Z,95166.25
2024-05-09T17:01:47.517Z,95166.81
2024-05-09T17:04:49.472Z,95173.88
2024-05-09T17:07:51.828Z,95167.84
2024-05-09T17:10:53.825Z,95178.31
2024-05-09T17:13:55.914Z,95181.00
2024-05-09T17:16:57.862Z,95176.53
2024-05-09T17:19:59.783Z,95175.75
2024-05-09T17:23:02.761Z,95171.44
2024-05-09T17:26:04.876Z,95189.25
2024-05-09T17:29:09.262Z,95179.31
2024-05-09T17:32:13.564Z,95180.34
2024-05-09T17:35:15.482Z,95180.09
2024-05-09T17:38:17.597Z,95182.84
2024-05-09T17:41:19.440Z,95186.25
2024-05-09T17:44:21.270Z,95184.13
2024-05-09T17:47:23.412Z,95184.28
2024-05-09T17:50:31.595Z,95187.81
2024-05-09T17:53:37.389Z,95189.94
2024-05-09T17:56:39.227Z,95191.06
2024-05-09T17:59:41.008Z,95199.69
2024-05-09T18:02:43.022Z,95193.00
2024-05-09T18:05:45.448Z,95198.50
2024-05-09T18:08:47.589Z,95209.69
2024-05-09T18:11:49.472Z,95203.69
2024-05-09T18:14:51.288Z,95209.03
2024-05-09T18:17:53.208Z,95211.19
2024-05-09T18:20:55.088Z,95213.88
2024-05-09T18:23:59.673Z,95214.66
2024-05-09T18:27:02.223Z,95222.13
2024-05-09T18:30:07.206Z,95221.47
2024-05-09T18:33:11.237Z,95224.59
2024-05-09T18:36:13.643Z,95233.25
2024-05-09T18:39:17.161Z,95232.47
2024-05-09T18:42:18.974Z,95242.91
2024-05-09T18:45:20.798Z,95241.13
2024-05-09T18:48:22.731Z,95239.00
2024-05-09T18:51:24.527Z,95240.81
2024-05-09T18:54:26.339Z,95241.47
2024-05-09T18:57:29.033Z,95234.59
2024-05-09T19:00:35.655Z,95248.13
2024-05-09T19:03:40.830Z,95249.19
2024-05-09T19:06:42.903Z,95255.66
2024-05-09T19:09:44.917Z,95266.78
2024-05-09T19:12:46.791Z,95263.78
2024-05-09T19:15:48.752Z,95269.59
2024-05-09T19:18:51.705Z,95261.22
2024-05-09T19:21:54.056Z,95269.41
2024-05-09T19:24:55.867Z,95274.88
2024-05-09T19:27:57.877Z,95271.25
2024-05-09T19:30:59.842Z,95274.53
2024-05-09T19:34:01.776Z,95281.59
2024-05-09T19:37:04.121Z,95280.34
2024-05-09T19:40:08.546Z,95279.66
2024-05-09T19:43:14.355Z,95274.94
2024-05-09T19:46:17.350Z,95276.66
2024-05-09T19:49:20.025Z,95278.38
2024-05-09T19:52:22.166Z,95279.50
2024-05-09T19:55:24.042Z,95281.50
2024-05-09T19:58:26.107Z,95277.03
2024-05-09T20:01:28.063Z,95282.38
2024-05-09T20:04:30.145Z,95277.66
2024-05-09T20:07:33.191Z,95286.47
2024-05-09T20:10:36.990Z,95291.31
2024-05-09T20:13:39.179Z,95285.50
2024-05-09T20:16:41.288Z,95282.63
2024-05-09T20:19:44.186Z,95283.22
2024-05-09T20:22:46.107Z,95284.88
2024-05-09T20:25:47.944Z,95289.56
2024-05-09T20:28:49.719Z,95285.72
2024-05-09T20:31:51.594Z,95295.13
2024-05-09T20:34:53.377Z,95293.38
2024-05-09T20:37:55.183Z,95290.53
2024-05-09T20:40:57.134Z,95293.00
2024-05-09T20:44:01.752Z,95290.63
2024-05-09T20:47:03.702Z,95295.19
2024-05-09T20:50:11.385Z,95290.44
2024-05-09T20:53:18.325Z,95292.63
2024-05-09T20:56:23.376Z,95283.34
2024-05-09T20:59:25.234Z,95284.53
2024-05-09T21:02:27.263Z,95296.41
2024-05-09T21:05:29.339Z,95297.28
2024-05-09T21:08:31.289Z,95290.38
2024-05-09T21:11:33.193Z,95294.72
2024-05-09T21:14:35.032Z,95288.72
2024-05-09T21:17:36.907Z,95285.25
2024-05-09T21:20:38.830Z,95286.84
2024-05-09T21:23:40.770Z,95287.94
2024-05-09T21:26:42.577Z,95290.09
2024-05-09T21:29:44.484Z,95283.03
2024-05-09T21:32:46.465Z,95292.28
2024-05-09T21:35:48.344Z,95291.97
2024-05-09T21:38:50.191Z,95290.72
2024-05-09T21:41:51.977Z,95294.47
2024-05-09T21:44:56.658Z,95290.81
2024-05-09T21:47:58.977Z,95287.34
2024-05-09T21:51:01.106Z,95293.28
2024-05-09T21:54:02.956Z,95282.63
2024-05-09T21:57:06.720Z,95293.28
2024-05-09T22:00:27.947Z,95291.22
2024-05-09T22:03:36.602Z,95284.81
2024-05-09T22:06:38.530Z,95287.78
2024-05-09T22:09:45.490Z,95286.19
2024-05-09T22:12:47.438Z,95283.53
2024-05-09T22:15:49.327Z,95280.09
2024-05-09T22:18:51.325Z,95279.28
2024-05-09T22:21:54.046Z,95275.34
2024-05-09T22:24:55.913Z,95276.94
2024-05-09T22:27:57.758Z,95276.16
2024-05-09T22:30:59.616Z,95270.34
2024-05-09T22:34:01.494Z,95275.94
2024-05-09T22:37:03.624Z,95275.16
2024-05-09T22:40:06.891Z,95273.56
2024-05-09T22:43:08.968Z,95277.31
2024-05-09T22:46:11.209Z,95271.22
2024-05-09T22:49:13.111Z,95263.50
2024-05-09T22:52:15.212Z,95268.06
2024-05-09T22:55:17.064Z,95266.19
2024-05-09T22:58:19.232Z,95266.97
2024-05-09T23:01:22.916Z,95271.50
2024-05-09T23:04:26.273Z,95266.19
2024-05-09T23:07:28.043Z,95271.50
2024-05-09T23:10:35.802Z,95267.28
2024-05-09T23:13:39.646Z,95269.94
2024-05-09T23:16:42.556Z,95259.56
2024-05-09T23:19:44.593Z,95268.34
2024-05-09T23:22:46.449Z,95258.78
2024-05-09T23:25:49.633Z,95258.78
2024-05-09T23:28:51.496Z,95260.66
2024-05-09T23:31:53.488Z,95255.63
2024-05-09T23:34:55.473Z,95252.19
2024-05-09T23:37:57.345Z,95252.50
2024-05-09T23:40:59.196Z,95244.50
2024-05-09T23:44:01.112Z,95250.91
2024-05-09T23:47:02.968Z,95246.19
2024-05-09T23:50:11.176Z,95250.91
2024-05-09T23:53:18.061Z,95253.28
2024-05-09T23:56:21.694Z,95243.41
2024-05-09T23:59:23.488Z,95241.53
